Time,TemperatureF,DewpointF,PressureIn,WindDirection,WindDirectionDegrees,WindSpeedMPH,WindSpeedGustMPH,Humidity,HourlyPrecipIn,Conditions,Clouds,dailyrainin,SoftwareType,DateUTC
2013-02-06 00:01:00,13.9,10.8,30.04,North,5,0.0,0.0,87,0.00,,---,0.00,VWS V14.00,2013-02-06 06:01:00,
2013-02-06 00:06:00,13.6,10.5,30.04,North,360,0.0,0.0,87,0.00,,---,0.00,VWS V14.00,2013-02-06 06:06:00,
2013-02-06 00:11:00,13.2,10.1,30.04,North,5,0.0,0.0,87,0.00,,---,0.00,VWS V14.00,2013-02-06 06:11:00,
2013-02-06 00:16:00,12.7,9.6,30.04,North,5,0.0,0.0,87,0.00,,---,0.00,VWS V14.00,2013-02-06 06:16:00,
2013-02-06 00:21:00,12.3,9.2,30.04,North,5,0.0,0.0,87,0.00,,---,0.00,VWS V14.00,2013-02-06 06:21:00,
2013-02-06 00:26:00,11.9,8.8,30.04,North,5,0.0,0.0,87,0.00,,---,0.00,VWS V14.00,2013-02-06 06:26:00,
2013-02-06 00:31:00,11.7,8.8,30.04,North,5,0.0,0.0,88,0.00,,---,0.00,VWS V14.00,2013-02-06 06:31:00,
2013-02-06 00:36:00,11.2,8.4,30.04,North,5,0.0,0.0,88,0.00,,---,0.00,VWS V14.00,2013-02-06 06:36:00,
2013-02-06 00:41:00,10.9,8.1,30.05,North,360,0.0,0.0,88,0.00,,---,0.00,VWS V14.00,2013-02-06 06:41:00,
2013-02-06 00:46:00,10.6,7.8,30.05,North,5,0.0,0.0,88,0.00,,---,0.00,VWS V14.00,2013-02-06 06:46:00,
2013-02-06 00:51:00,10.7,8.1,30.05,North,5,0.0,0.0,89,0.00,,---,0.00,VWS V14.00,2013-02-06 06:51:00,
2013-02-06 00:56:00,10.4,7.8,30.05,North,360,0.0,0.0,89,0.00,,---,0.00,VWS V14.00,2013-02-06 06:56:00,
2013-02-06 01:01:00,9.6,7.0,30.05,North,5,0.0,0.0,89,0.00,,---,0.00,VWS V14.00,2013-02-06 07:01:00,
2013-02-06 01:06:00,9.3,6.7,30.05,North,5,0.0,0.0,89,0.00,,---,0.00,VWS V14.00,2013-02-06 07:06:00,
2013-02-06 01:11:00,9.3,7.0,30.05,North,5,0.0,0.0,90,0.00,,---,0.00,VWS V14.00,2013-02-06 07:11:00,
2013-02-06 01:16:00,9.9,7.8,30.05,North,5,0.0,0.0,91,0.00,,---,0.00,VWS V14.00,2013-02-06 07:16:00,
2013-02-06 01:21:00,10.3,8.2,30.05,North,5,0.0,0.0,91,0.00,,---,0.00,VWS V14.00,2013-02-06 07:21:00,
2013-02-06 01:26:00,9.8,7.5,30.05,North,360,0.0,0.0,90,0.00,,---,0.00,VWS V14.00,2013-02-06 07:26:00,
2013-02-06 01:31:00,9.3,7.0,30.06,North,5,0.0,0.0,90,0.00,,---,0.00,VWS V14.00,2013-02-06 07:31:00,
2013-02-06 01:36:00,9.0,6.7,30.06,North,360,0.0,0.0,90,0.00,,---,0.00,VWS V14.00,2013-02-06 07:36:00,
2013-02-06 01:41:00,8.6,6.3,30.06,North,5,0.0,0.0,90,0.00,,---,0.00,VWS V14.00,2013-02-06 07:41:00,
2013-02-06 01:46:00,8.1,5.8,30.07,North,5,0.0,0.0,90,0.00,,---,0.00,VWS V14.00,2013-02-06 07:46:00,
2013-02-06 01:51:00,7.7,5.4,30.06,North,360,0.0,0.0,90,0.00,,---,0.00,VWS V14.00,2013-02-06 07:51:00,
2013-02-06 01:56:00,7.5,5.2,30.06,North,5,0.0,0.0,90,0.00,,---,0.00,VWS V14.00,2013-02-06 07:56:00,
2013-02-06 02:01:00,7.3,5.0,30.06,North,360,0.0,0.0,90,0.00,,---,0.00,VWS V14.00,2013-02-06 08:01:00,
2013-02-06 02:06:00,6.9,4.6,30.06,North,360,0.0,0.0,90,0.00,,---,0.00,VWS V14.00,2013-02-06 08:06:00,
2013-02-06 02:11:00,6.5,4.2,30.07,North,360,0.0,0.0,90,0.00,,---,0.00,VWS V14.00,2013-02-06 08:11:00,
2013-02-06 02:16:00,6.2,3.9,30.07,North,5,0.0,0.0,90,0.00,,---,0.00,VWS V14.00,2013-02-06 08:16:00,
2013-02-06 02:21:00,6.3,4.0,30.08,North,360,0.0,0.0,90,0.00,,---,0.00,VWS V14.00,2013-02-06 08:21:00,
2013-02-06 02:26:00,6.5,4.4,30.07,North,5,0.0,0.0,91,0.00,,---,0.00,VWS V14.00,2013-02-06 08:26:00,
2013-02-06 02:31:00,6.3,4.0,30.08,North,5,0.0,0.0,90,0.00,,---,0.00,VWS V14.00,2013-02-06 08:31:00,
2013-02-06 02:36:00,6.0,3.7,30.08,North,5,0.0,0.0,90,0.00,,---,0.00,VWS V14.00,2013-02-06 08:36:00,
2013-02-06 02:41:00,5.8,3.5,30.08,North,360,0.0,0.0,90,0.00,,---,0.00,VWS V14.00,2013-02-06 08:41:00,
2013-02-06 02:46:00,5.3,3.0,30.09,North,5,0.0,0.0,90,0.00,,---,0.00,VWS V14.00,2013-02-06 08:46:00,
2013-02-06 02:51:00,4.8,2.5,30.09,North,5,0.0,0.0,90,0.00,,---,0.00,VWS V14.00,2013-02-06 08:51:00,
2013-02-06 02:56:00,4.4,2.1,30.09,North,360,0.0,0.0,90,0.00,,---,0.00,VWS V14.00,2013-02-06 08:56:00,
2013-02-06 03:01:00,4.6,2.3,30.09,North,360,0.0,0.0,90,0.00,,---,0.00,VWS V14.00,2013-02-06 09:01:00,
2013-02-06 03:06:00,4.5,2.2,30.08,North,5,0.0,0.0,90,0.00,,---,0.00,VWS V14.00,2013-02-06 09:06:00,
2013-02-06 03:11:00,4.0,1.5,30.09,North,360,0.0,0.0,89,0.00,,---,0.00,VWS V14.00,2013-02-06 09:11:00,
2013-02-06 03:16:00,3.5,1.0,30.09,North,5,0.0,0.0,89,0.00,,---,0.00,VWS V14.00,2013-02-06 09:16:00,
2013-02-06 03:21:00,3.1,0.6,30.09,North,5,0.0,0.0,89,0.00,,---,0.00,VWS V14.00,2013-02-06 09:21:00,
2013-02-06 03:26:00,2.9,0.4,30.09,North,5,0.0,0.0,89,0.00,,---,0.00,VWS V14.00,2013-02-06 09:26:00,
2013-02-06 03:31:00,2.4,-0.1,30.09,North,360,0.0,0.0,89,0.00,,---,0.00,VWS V14.00,2013-02-06 09:31:00,
2013-02-06 03:36:00,2.1,-0.4,30.09,North,360,0.0,0.0,89,0.00,,---,0.00,VWS V14.00,2013-02-06 09:36:00,
2013-02-06 03:41:00,2.1,-0.4,30.09,North,5,0.0,0.0,89,0.00,,---,0.00,VWS V14.00,2013-02-06 09:41:00,
2013-02-06 03:46:00,2.2,-0.3,30.08,North,5,0.0,0.0,89,0.00,,---,0.00,VWS V14.00,2013-02-06 09:46:00,
2013-02-06 03:51:00,2.2,-0.1,30.08,North,360,0.0,0.0,90,0.00,,---,0.00,VWS V14.00,2013-02-06 09:51:00,
2013-02-06 03:56:00,2.4,0.1,30.08,North,5,0.0,0.0,90,0.00,,---,0.00,VWS V14.00,2013-02-06 09:56:00,
2013-02-06 04:01:00,2.2,-0.3,30.08,North,5,0.0,0.0,89,0.00,,---,0.00,VWS V14.00,2013-02-06 10:01:00,
2013-02-06 04:06:00,1.7,-0.8,30.07,North,360,0.0,0.0,89,0.00,,---,0.00,VWS V14.00,2013-02-06 10:06:00,
2013-02-06 04:11:00,1.3,-1.2,30.07,North,360,0.0,0.0,89,0.00,,---,0.00,VWS V14.00,2013-02-06 10:11:00,
2013-02-06 04:16:00,1.2,-1.3,30.07,North,360,0.0,0.0,89,0.00,,---,0.00,VWS V14.00,2013-02-06 10:16:00,
2013-02-06 04:21:00,1.4,-0.9,30.07,North,5,0.0,0.0,90,0.00,,---,0.00,VWS V14.00,2013-02-06 10:21:00,
2013-02-06 04:26:00,1.5,-0.8,30.07,North,5,0.0,0.0,90,0.00,,---,0.00,VWS V14.00,2013-02-06 10:26:00,
2013-02-06 04:31:00,1.4,-1.1,30.08,North,360,0.0,0.0,89,0.00,,---,0.00,VWS V14.00,2013-02-06 10:31:00,
2013-02-06 04:36:00,1.4,-1.1,30.08,North,5,0.0,0.0,89,0.00,,---,0.00,VWS V14.00,2013-02-06 10:36:00,
2013-02-06 04:41:00,1.7,-0.6,30.08,North,5,0.0,0.0,90,0.00,,---,0.00,VWS V14.00,2013-02-06 10:41:00,
2013-02-06 04:46:00,1.7,-0.6,30.08,North,360,0.0,0.0,90,0.00,,---,0.00,VWS V14.00,2013-02-06 10:46:00,
2013-02-06 04:51:00,1.7,-0.8,30.09,North,5,0.0,0.0,89,0.00,,---,0.00,VWS V14.00,2013-02-06 10:51:00,
2013-02-06 04:56:00,1.5,-1.0,30.09,North,5,0.0,0.0,89,0.00,,---,0.00,VWS V14.00,2013-02-06 10:56:00,
2013-02-06 05:01:00,1.4,-1.1,30.09,North,360,0.0,0.0,89,0.00,,---,0.00,VWS V14.00,2013-02-06 11:01:00,
2013-02-06 05:06:00,1.2,-1.3,30.10,North,5,0.0,0.0,89,0.00,,---,0.00,VWS V14.00,2013-02-06 11:06:00,
2013-02-06 05:11:00,1.0,-1.5,30.10,North,360,0.0,0.0,89,0.00,,---,0.00,VWS V14.00,2013-02-06 11:11:00,
2013-02-06 05:16:00,0.7,-1.8,30.10,North,360,0.0,0.0,89,0.00,,---,0.00,VWS V14.00,2013-02-06 11:16:00,
2013-02-06 05:21:00,0.5,-2.0,30.09,North,5,0.0,0.0,89,0.00,,---,0.00,VWS V14.00,2013-02-06 11:21:00,
2013-02-06 05:26:00,0.7,-1.8,30.09,North,5,0.0,0.0,89,0.00,,---,0.00,VWS V14.00,2013-02-06 11:26:00,
2013-02-06 05:31:00,0.6,-1.9,30.09,North,5,0.0,0.0,89,0.00,,---,0.00,VWS V14.00,2013-02-06 11:31:00,
2013-02-06 05:36:00,0.6,-1.9,30.09,North,5,0.0,0.0,89,0.00,,---,0.00,VWS V14.00,2013-02-06 11:36:00,
2013-02-06 05:41:00,0.6,-1.9,30.09,North,5,0.0,0.0,89,0.00,,---,0.00,VWS V14.00,2013-02-06 11:41:00,
2013-02-06 05:46:00,0.3,-2.2,30.09,North,5,0.0,0.0,89,0.00,,---,0.00,VWS V14.00,2013-02-06 11:46:00,
2013-02-06 05:51:00,0.1,-2.4,30.09,North,360,0.0,0.0,89,0.00,,---,0.00,VWS V14.00,2013-02-06 11:51:00,
2013-02-06 05:56:00,-0.4,-3.1,30.09,North,360,0.0,0.0,88,0.00,,---,0.00,VWS V14.00,2013-02-06 11:56:00,
2013-02-06 06:01:00,-0.7,-3.4,30.08,North,5,0.0,0.0,88,0.00,,---,0.00,VWS V14.00,2013-02-06 12:01:00,
2013-02-06 06:06:00,-0.7,-3.2,30.08,North,5,0.0,0.0,89,0.00,,---,0.00,VWS V14.00,2013-02-06 12:06:00,
2013-02-06 06:11:00,-0.6,-3.1,30.08,North,360,0.0,0.0,89,0.00,,---,0.00,VWS V14.00,2013-02-06 12:11:00,
2013-02-06 06:16:00,-0.5,-3.0,30.09,North,360,0.0,0.0,89,0.00,,---,0.00,VWS V14.00,2013-02-06 12:16:00,
2013-02-06 06:21:00,-0.7,-3.2,30.09,North,5,0.0,0.0,89,0.00,,---,0.00,VWS V14.00,2013-02-06 12:21:00,
2013-02-06 06:26:00,-0.6,-3.1,30.09,North,360,0.0,0.0,89,0.00,,---,0.00,VWS V14.00,2013-02-06 12:26:00,
2013-02-06 06:31:00,-0.8,-3.3,30.10,North,360,0.0,0.0,89,0.00,,---,0.00,VWS V14.00,2013-02-06 12:31:00,
2013-02-06 06:36:00,-1.0,-3.7,30.10,North,5,0.0,0.0,88,0.00,,---,0.00,VWS V14.00,2013-02-06 12:36:00,
2013-02-06 06:41:00,-0.9,-0.9,30.10,North,360,0.0,0.0,100,0.00,,---,0.00,VWS V14.00,2013-02-06 12:41:00,
2013-02-06 06:46:00,-1.2,-3.9,30.11,North,5,0.0,0.0,88,0.00,,---,0.00,VWS V14.00,2013-02-06 12:46:00,
2013-02-06 06:51:00,-1.2,-3.7,30.11,North,5,0.0,0.0,89,0.00,,---,0.00,VWS V14.00,2013-02-06 12:51:00,
2013-02-06 06:56:00,-1.3,-4.0,30.11,North,360,0.0,0.0,88,0.00,,---,0.00,VWS V14.00,2013-02-06 12:56:00,
2013-02-06 07:01:00,-1.2,-3.7,30.11,North,360,0.0,0.0,89,0.00,,---,0.00,VWS V14.00,2013-02-06 13:01:00,
2013-02-06 07:07:00,-1.1,-3.5,30.12,North,5,0.0,0.0,89,0.00,,---,0.00,VWS V14.00,2013-02-06 13:07:00,
2013-02-06 07:12:00,-1.2,-3.9,30.12,North,360,0.0,0.0,88,0.00,,---,0.00,VWS V14.00,2013-02-06 13:12:00,
2013-02-06 07:17:00,-1.3,-4.0,30.12,North,5,0.0,0.0,88,0.00,,---,0.00,VWS V14.00,2013-02-06 13:17:00,
2013-02-06 07:22:00,-1.2,-3.7,30.12,North,360,0.0,0.0,89,0.00,,---,0.00,VWS V14.00,2013-02-06 13:22:00,
2013-02-06 07:27:00,-0.9,-3.3,30.12,North,360,0.0,0.0,89,0.00,,---,0.00,VWS V14.00,2013-02-06 13:27:00,
2013-02-06 07:32:00,-0.3,-2.8,30.13,North,5,0.0,0.0,89,0.00,,---,0.00,VWS V14.00,2013-02-06 13:32:00,
2013-02-06 07:37:00,0.7,-1.5,30.13,North,360,0.0,0.0,90,0.00,,---,0.00,VWS V14.00,2013-02-06 13:37:00,
2013-02-06 07:42:00,0.6,-1.9,30.13,North,5,0.0,0.0,89,0.00,,---,0.00,VWS V14.00,2013-02-06 13:42:00,
2013-02-06 07:47:00,0.7,-1.8,30.13,North,5,0.0,0.0,89,0.00,,---,0.00,VWS V14.00,2013-02-06 13:47:00,
2013-02-06 07:52:00,0.8,-1.7,30.14,North,5,0.0,0.0,89,0.00,,---,0.00,VWS V14.00,2013-02-06 13:52:00,
2013-02-06 07:57:00,1.4,-1.1,30.14,North,360,0.0,0.0,89,0.00,,---,0.00,VWS V14.00,2013-02-06 13:57:00,
2013-02-06 08:02:00,2.2,-0.1,30.13,North,5,0.0,0.0,90,0.00,,---,0.00,VWS V14.00,2013-02-06 14:02:00,
2013-02-06 08:07:00,3.0,0.7,30.13,North,360,0.0,0.0,90,0.00,,---,0.00,VWS V14.00,2013-02-06 14:07:00,
2013-02-06 08:12:00,4.3,2.3,30.13,North,5,0.0,0.0,91,0.00,,---,0.00,VWS V14.00,2013-02-06 14:12:00,
2013-02-06 08:17:00,4.9,2.8,30.13,North,5,0.0,0.0,91,0.00,,---,0.00,VWS V14.00,2013-02-06 14:17:00,
2013-02-06 08:22:00,5.4,3.1,30.13,North,360,0.0,0.0,90,0.00,,---,0.00,VWS V14.00,2013-02-06 14:22:00,
2013-02-06 08:27:00,6.1,3.8,30.12,North,360,0.0,0.0,90,0.00,,---,0.00,VWS V14.00,2013-02-06 14:27:00,
2013-02-06 08:32:00,7.4,5.3,30.13,North,5,2.0,3.0,91,0.00,,---,0.00,VWS V14.00,2013-02-06 14:32:00,
2013-02-06 08:37:00,10.7,9.3,30.12,North,360,0.0,0.0,94,0.00,,---,0.00,VWS V14.00,2013-02-06 14:37:00,
2013-02-06 08:42:00,13.5,12.1,30.12,SW,219,3.0,3.0,94,0.00,,---,0.00,VWS V14.00,2013-02-06 14:42:00,
2013-02-06 08:47:00,14.6,12.9,30.12,SW,219,0.0,0.0,93,0.00,,---,0.00,VWS V14.00,2013-02-06 14:47:00,
2013-02-06 08:52:00,15.2,13.1,30.11,South,175,0.0,1.0,91,0.00,,---,0.00,VWS V14.00,2013-02-06 14:52:00,
2013-02-06 08:57:00,16.1,13.9,30.11,South,175,0.0,0.0,91,0.00,,---,0.00,VWS V14.00,2013-02-06 14:57:00,
2013-02-06 09:02:00,16.6,13.9,30.11,South,175,0.0,2.0,89,0.00,,---,0.00,VWS V14.00,2013-02-06 15:02:00,
2013-02-06 09:07:00,17.0,14.1,30.11,South,177,0.0,2.0,88,0.00,,---,0.00,VWS V14.00,2013-02-06 15:07:00,
2013-02-06 09:12:00,17.7,14.8,30.12,South,176,0.0,0.0,88,0.00,,---,0.00,VWS V14.00,2013-02-06 15:12:00,
2013-02-06 09:17:00,18.4,15.2,30.12,South,184,0.0,2.0,87,0.00,,---,0.00,VWS V14.00,2013-02-06 15:17:00,
2013-02-06 09:22:00,18.6,14.9,30.13,SSE,150,5.0,6.0,85,0.00,,---,0.00,VWS V14.00,2013-02-06 15:22:00,
2013-02-06 09:27:00,18.7,14.4,30.14,South,173,4.0,6.0,83,0.00,,---,0.00,VWS V14.00,2013-02-06 15:27:00,
2013-02-06 09:32:00,18.8,14.5,30.13,SSE,163,3.0,4.0,83,0.00,,---,0.00,VWS V14.00,2013-02-06 15:32:00,
2013-02-06 09:37:00,18.9,14.6,30.13,South,169,3.0,4.0,83,0.00,,---,0.00,VWS V14.00,2013-02-06 15:37:00,
2013-02-06 09:42:00,19.0,14.4,30.13,SSE,165,0.0,4.0,82,0.00,,---,0.00,VWS V14.00,2013-02-06 15:42:00,
2013-02-06 09:47:00,19.3,14.7,30.13,SSE,168,1.0,5.0,82,0.00,,---,0.00,VWS V14.00,2013-02-06 15:47:00,
2013-02-06 09:52:00,19.5,14.6,30.12,SSE,159,3.0,6.0,81,0.00,,---,0.00,VWS V14.00,2013-02-06 15:52:00,
2013-02-06 09:57:00,19.9,15.3,30.11,South,190,2.0,4.0,82,0.00,,---,0.00,VWS V14.00,2013-02-06 15:57:00,
2013-02-06 10:02:00,20.4,15.5,30.12,South,182,3.0,5.0,81,0.00,,---,0.00,VWS V14.00,2013-02-06 16:02:00,
2013-02-06 10:07:00,21.1,16.2,30.12,South,191,0.0,4.0,81,0.00,,---,0.00,VWS V14.00,2013-02-06 16:07:00,
2013-02-06 10:13:00,22.0,16.5,30.11,South,191,0.0,1.0,79,0.00,,---,0.00,VWS V14.00,2013-02-06 16:13:00,
2013-02-06 10:18:00,22.7,16.6,30.12,South,184,2.0,3.0,77,0.00,,---,0.00,VWS V14.00,2013-02-06 16:18:00,
2013-02-06 10:23:00,23.1,17.0,30.12,South,185,1.0,3.0,77,0.00,,---,0.00,VWS V14.00,2013-02-06 16:23:00,
2013-02-06 10:28:00,23.3,16.9,30.12,South,183,2.0,4.0,76,0.00,,---,0.00,VWS V14.00,2013-02-06 16:28:00,
2013-02-06 10:33:00,23.4,17.0,30.12,SSE,165,3.0,5.0,76,0.00,,---,0.00,VWS V14.00,2013-02-06 16:33:00,
2013-02-06 10:38:00,23.7,17.3,30.11,SSE,163,2.0,5.0,76,0.00,,---,0.00,VWS V14.00,2013-02-06 16:38:00,
2013-02-06 10:43:00,23.7,17.3,30.10,SSE,157,2.0,5.0,76,0.00,,---,0.00,VWS V14.00,2013-02-06 16:43:00,
2013-02-06 10:48:00,24.1,17.6,30.11,SSW,192,1.0,7.0,76,0.00,,---,0.00,VWS V14.00,2013-02-06 16:48:00,
2013-02-06 10:53:00,23.9,17.5,30.11,SSE,149,2.0,5.0,76,0.00,,---,0.00,VWS V14.00,2013-02-06 16:53:00,
2013-02-06 10:58:00,23.7,17.6,30.11,SW,217,6.0,6.0,77,0.00,,---,0.00,VWS V14.00,2013-02-06 16:58:00,
2013-02-06 11:03:00,23.3,17.2,30.12,South,179,3.0,7.0,77,0.00,,---,0.00,VWS V14.00,2013-02-06 17:03:00,
2013-02-06 11:08:00,23.3,17.5,30.12,SSW,192,2.0,6.0,78,0.00,,---,0.00,VWS V14.00,2013-02-06 17:08:00,
2013-02-06 11:13:00,23.3,17.5,30.11,SSW,207,4.0,5.0,78,0.00,,---,0.00,VWS V14.00,2013-02-06 17:13:00,
2013-02-06 11:18:00,23.1,17.0,30.11,South,182,2.0,10.0,77,0.00,,---,0.00,VWS V14.00,2013-02-06 17:18:00,
2013-02-06 11:23:00,23.1,17.0,30.12,SSE,164,2.0,8.0,77,0.00,,---,0.00,VWS V14.00,2013-02-06 17:23:00,
2013-02-06 11:28:00,23.0,17.2,30.12,SE,143,2.0,11.0,78,0.00,,---,0.00,VWS V14.00,2013-02-06 17:28:00,
2013-02-06 11:33:00,23.0,17.2,30.12,South,171,3.0,5.0,78,0.00,,---,0.00,VWS V14.00,2013-02-06 17:33:00,
2013-02-06 11:38:00,23.0,17.2,30.12,South,171,3.0,5.0,78,0.00,,---,0.00,VWS V14.00,2013-02-06 17:38:00,
2013-02-06 11:43:00,22.9,17.1,30.11,SSE,159,0.0,7.0,78,0.00,,---,0.00,VWS V14.00,2013-02-06 17:43:00,
2013-02-06 11:48:00,23.0,17.2,30.11,SSE,151,4.0,7.0,78,0.00,,---,0.00,VWS V14.00,2013-02-06 17:48:00,
2013-02-06 11:53:00,23.2,17.4,30.11,SSE,161,3.0,5.0,78,0.00,,---,0.00,VWS V14.00,2013-02-06 17:53:00,
2013-02-06 11:58:00,23.4,17.6,30.11,SE,146,3.0,4.0,78,0.00,,---,0.00,VWS V14.00,2013-02-06 17:58:00,
2013-02-06 12:03:00,23.7,17.9,30.11,South,173,4.0,4.0,78,0.00,,---,0.00,VWS V14.00,2013-02-06 18:03:00,
2013-02-06 12:08:00,24.2,18.3,30.11,SSE,163,0.0,4.0,78,0.00,,---,0.00,VWS V14.00,2013-02-06 18:08:00,
2013-02-06 12:13:00,24.3,18.1,30.11,South,186,4.0,8.0,77,0.00,,---,0.00,VWS V14.00,2013-02-06 18:13:00,
2013-02-06 12:18:00,24.5,18.3,30.11,South,176,3.0,6.0,77,0.00,,---,0.00,VWS V14.00,2013-02-06 18:18:00,
2013-02-06 12:23:00,24.8,18.6,30.11,SSE,157,3.0,9.0,77,0.00,,---,0.00,VWS V14.00,2013-02-06 18:23:00,
2013-02-06 12:28:00,24.9,18.7,30.11,SSE,160,5.0,10.0,77,0.00,,---,0.00,VWS V14.00,2013-02-06 18:28:00,
2013-02-06 12:33:00,25.1,18.9,30.11,SSW,196,8.0,10.0,77,0.00,,---,0.00,VWS V14.00,2013-02-06 18:33:00,
2013-02-06 12:38:00,25.2,19.0,30.11,SSE,150,1.0,5.0,77,0.00,,---,0.00,VWS V14.00,2013-02-06 18:38:00,
2013-02-06 12:43:00,25.3,19.1,30.11,SSE,148,0.0,7.0,77,0.00,,---,0.00,VWS V14.00,2013-02-06 18:43:00,
2013-02-06 12:48:00,25.5,19.3,30.11,South,183,4.0,6.0,77,0.00,,---,0.00,VWS V14.00,2013-02-06 18:48:00,
2013-02-06 12:53:00,25.5,19.3,30.10,South,176,5.0,6.0,77,0.00,,---,0.00,VWS V14.00,2013-02-06 18:53:00,
2013-02-06 12:58:00,25.5,19.3,30.09,South,187,7.0,7.0,77,0.00,,---,0.00,VWS V14.00,2013-02-06 18:58:00,
2013-02-06 13:03:00,25.5,19.3,30.09,SSE,158,0.0,5.0,77,0.00,,---,0.00,VWS V14.00,2013-02-06 19:03:00,
2013-02-06 13:08:00,25.5,19.3,30.09,SSE,153,1.0,6.0,77,0.00,,---,0.00,VWS V14.00,2013-02-06 19:08:00,
2013-02-06 13:13:00,25.6,19.4,30.10,SSE,161,5.0,7.0,77,0.00,,---,0.00,VWS V14.00,2013-02-06 19:13:00,
2013-02-06 13:18:00,25.5,19.3,30.09,SSE,160,4.0,7.0,77,0.00,,---,0.00,VWS V14.00,2013-02-06 19:18:00,
2013-02-06 13:23:00,25.7,19.8,30.09,SSE,165,3.0,4.0,78,0.00,,---,0.00,VWS V14.00,2013-02-06 19:23:00,
2013-02-06 13:28:00,26.0,20.1,30.10,SSE,163,3.0,6.0,78,0.00,,---,0.00,VWS V14.00,2013-02-06 19:28:00,
2013-02-06 13:33:00,26.1,19.9,30.09,South,180,1.0,7.0,77,0.00,,---,0.00,VWS V14.00,2013-02-06 19:33:00,
2013-02-06 13:38:00,26.3,20.1,30.09,SSE,157,0.0,4.0,77,0.00,,---,0.00,VWS V14.00,2013-02-06 19:38:00,
2013-02-06 13:43:00,26.5,20.3,30.09,SSE,159,3.0,4.0,77,0.00,,---,0.00,VWS V14.00,2013-02-06 19:43:00,
2013-02-06 13:48:00,26.6,20.4,30.08,South,178,5.0,5.0,77,0.00,,---,0.00,VWS V14.00,2013-02-06 19:48:00,
2013-02-06 13:53:00,26.6,20.4,30.08,South,175,2.0,4.0,77,0.00,,---,0.00,VWS V14.00,2013-02-06 19:53:00,
2013-02-06 13:58:00,26.7,20.5,30.08,SSE,147,1.0,6.0,77,0.00,,---,0.00,VWS V14.00,2013-02-06 19:58:00,
2013-02-06 14:03:00,26.9,20.7,30.08,SSE,167,1.0,2.0,77,0.00,,---,0.00,VWS V14.00,2013-02-06 20:03:00,
2013-02-06 14:08:00,27.3,21.1,30.08,SE,132,1.0,3.0,77,0.00,,---,0.00,VWS V14.00,2013-02-06 20:08:00,
2013-02-06 14:13:00,27.5,20.9,30.08,SE,132,2.0,4.0,76,0.00,,---,0.00,VWS V14.00,2013-02-06 20:13:00,
2013-02-06 14:18:00,27.4,20.8,30.08,SE,138,0.0,4.0,76,0.00,,---,0.00,VWS V14.00,2013-02-06 20:18:00,
2013-02-06 14:23:00,27.4,20.8,30.08,SE,126,3.0,4.0,76,0.00,,---,0.00,VWS V14.00,2013-02-06 20:23:00,
2013-02-06 14:28:00,27.4,21.1,30.07,South,171,0.0,4.0,77,0.00,,---,0.00,VWS V14.00,2013-02-06 20:28:00,
2013-02-06 14:33:00,27.4,21.1,30.07,SE,126,0.0,4.0,77,0.00,,---,0.00,VWS V14.00,2013-02-06 20:33:00,
2013-02-06 14:38:00,27.4,21.1,30.07,SE,142,1.0,6.0,77,0.00,,---,0.00,VWS V14.00,2013-02-06 20:38:00,
2013-02-06 14:43:00,27.4,21.1,30.06,SE,132,3.0,7.0,77,0.00,,---,0.00,VWS V14.00,2013-02-06 20:43:00,
2013-02-06 14:48:00,27.4,21.5,30.07,South,170,2.0,5.0,78,0.00,,---,0.00,VWS V14.00,2013-02-06 20:48:00,
2013-02-06 14:53:00,27.5,21.2,30.07,SSE,167,4.0,6.0,77,0.00,,---,0.00,VWS V14.00,2013-02-06 20:53:00,
2013-02-06 14:58:00,27.6,21.4,30.07,SSE,157,4.0,5.0,77,0.00,,---,0.00,VWS V14.00,2013-02-06 20:58:00,
2013-02-06 15:04:00,27.6,21.6,30.07,SSE,155,4.0,5.0,78,0.00,,---,0.00,VWS V14.00,2013-02-06 21:04:00,
2013-02-06 15:09:00,27.6,21.6,30.07,ESE,115,2.0,6.0,78,0.00,,---,0.00,VWS V14.00,2013-02-06 21:09:00,
2013-02-06 15:14:00,27.6,21.6,30.07,SSE,155,5.0,5.0,78,0.00,,---,0.00,VWS V14.00,2013-02-06 21:14:00,
2013-02-06 15:19:00,27.7,21.8,30.07,SSE,156,3.0,6.0,78,0.00,,---,0.00,VWS V14.00,2013-02-06 21:19:00,
2013-02-06 15:24:00,27.9,21.9,30.07,SSE,159,3.0,5.0,78,0.00,,---,0.00,VWS V14.00,2013-02-06 21:24:00,
2013-02-06 15:29:00,27.8,21.9,30.07,SSE,159,3.0,9.0,78,0.00,,---,0.00,VWS V14.00,2013-02-06 21:29:00,
2013-02-06 15:34:00,27.7,21.8,30.07,SE,128,2.0,9.0,78,0.00,,---,0.00,VWS V14.00,2013-02-06 21:34:00,
2013-02-06 15:39:00,27.8,22.1,30.07,SSE,165,4.0,9.0,79,0.00,,---,0.00,VWS V14.00,2013-02-06 21:39:00,
2013-02-06 15:44:00,27.9,22.2,30.07,SSE,165,5.0,8.0,79,0.00,,---,0.00,VWS V14.00,2013-02-06 21:44:00,
2013-02-06 15:49:00,28.1,22.1,30.06,SE,146,2.0,6.0,78,0.00,,---,0.00,VWS V14.00,2013-02-06 21:49:00,
2013-02-06 15:54:00,28.0,22.0,30.05,SE,142,1.0,5.0,78,0.00,,---,0.00,VWS V14.00,2013-02-06 21:54:00,
2013-02-06 15:59:00,27.9,21.9,30.05,SSE,161,2.0,13.0,78,0.00,,---,0.00,VWS V14.00,2013-02-06 21:59:00,
2013-02-06 16:04:00,27.9,22.2,30.06,SSE,159,2.0,7.0,79,0.00,,---,0.00,VWS V14.00,2013-02-06 22:04:00,
2013-02-06 16:09:00,27.9,22.2,30.06,South,176,4.0,7.0,79,0.00,,---,0.00,VWS V14.00,2013-02-06 22:09:00,
2013-02-06 16:14:00,28.0,22.3,30.06,South,175,0.0,7.0,79,0.00,,---,0.00,VWS V14.00,2013-02-06 22:14:00,
2013-02-06 16:19:00,28.0,22.3,30.06,SSE,155,3.0,10.0,79,0.00,,---,0.00,VWS V14.00,2013-02-06 22:19:00,
2013-02-06 16:24:00,27.9,22.2,30.05,SSE,154,2.0,7.0,79,0.00,,---,0.00,VWS V14.00,2013-02-06 22:24:00,
2013-02-06 16:29:00,27.9,22.5,30.05,SSE,158,3.0,5.0,80,0.00,,---,0.00,VWS V14.00,2013-02-06 22:29:00,
2013-02-06 16:34:00,27.9,22.5,30.04,SSE,156,4.0,6.0,80,0.00,,---,0.00,VWS V14.00,2013-02-06 22:34:00,
2013-02-06 16:39:00,27.7,22.4,30.03,ESE,123,2.0,5.0,80,0.00,,---,0.00,VWS V14.00,2013-02-06 22:39:00,
2013-02-06 16:44:00,27.7,22.6,30.02,ESE,108,5.0,6.0,81,0.00,,---,0.00,VWS V14.00,2013-02-06 22:44:00,
2013-02-06 16:49:00,27.7,22.6,30.02,SE,136,4.0,6.0,81,0.00,,---,0.00,VWS V14.00,2013-02-06 22:49:00,
2013-02-06 16:54:00,27.9,22.8,30.02,SE,138,4.0,10.0,81,0.00,,---,0.00,VWS V14.00,2013-02-06 22:54:00,
2013-02-06 16:59:00,28.1,23.0,30.03,SE,139,5.0,10.0,81,0.00,,---,0.00,VWS V14.00,2013-02-06 22:59:00,
2013-02-06 17:04:00,28.2,23.1,30.03,SSE,166,4.0,5.0,81,0.00,,---,0.00,VWS V14.00,2013-02-06 23:04:00,
2013-02-06 17:09:00,28.3,23.2,30.03,South,171,1.0,7.0,81,0.00,,---,0.00,VWS V14.00,2013-02-06 23:09:00,
2013-02-06 17:14:00,28.3,23.2,30.03,SSE,157,2.0,3.0,81,0.00,,---,0.00,VWS V14.00,2013-02-06 23:14:00,
2013-02-06 17:19:00,28.1,23.3,30.04,SSE,150,2.0,4.0,82,0.00,,---,0.00,VWS V14.00,2013-02-06 23:19:00,
2013-02-06 17:24:00,28.1,23.3,30.04,SSE,168,3.0,6.0,82,0.00,,---,0.00,VWS V14.00,2013-02-06 23:24:00,
2013-02-06 17:29:00,28.0,23.2,30.03,SSE,148,4.0,5.0,82,0.00,,---,0.00,VWS V14.00,2013-02-06 23:29:00,
2013-02-06 17:34:00,28.1,23.3,30.03,SE,137,4.0,8.0,82,0.00,,---,0.00,VWS V14.00,2013-02-06 23:34:00,
2013-02-06 17:39:00,28.1,23.3,30.03,SSE,156,1.0,4.0,82,0.00,,---,0.00,VWS V14.00,2013-02-06 23:39:00,
2013-02-06 17:44:00,28.1,23.3,30.04,SSE,161,0.0,5.0,82,0.00,,---,0.00,VWS V14.00,2013-02-06 23:44:00,
2013-02-06 17:49:00,28.2,23.4,30.04,SSE,159,3.0,5.0,82,0.00,,---,0.00,VWS V14.00,2013-02-06 23:49:00,
2013-02-06 17:54:00,28.3,23.5,30.03,SSE,160,4.0,4.0,82,0.00,,---,0.00,VWS V14.00,2013-02-06 23:54:00,
2013-02-06 17:59:00,28.4,23.6,30.03,SE,143,2.0,3.0,82,0.00,,---,0.00,VWS V14.00,2013-02-06 23:59:00,
2013-02-06 18:04:00,28.4,23.9,30.03,SE,134,2.0,5.0,83,0.00,,---,0.00,VWS V14.00,2013-02-07 00:04:00,
2013-02-06 18:09:00,28.4,23.9,30.03,SE,139,1.0,3.0,83,0.00,,---,0.00,VWS V14.00,2013-02-07 00:09:00,
2013-02-06 18:14:00,28.5,24.0,30.03,SE,129,1.0,2.0,83,0.00,,---,0.00,VWS V14.00,2013-02-07 00:14:00,
2013-02-06 18:19:00,28.5,24.0,30.03,ESE,115,1.0,2.0,83,0.00,,---,0.00,VWS V14.00,2013-02-07 00:19:00,
2013-02-06 18:25:00,28.6,24.1,30.03,SSE,147,0.0,3.0,83,0.00,,---,0.00,VWS V14.00,2013-02-07 00:25:00,
2013-02-06 18:30:00,28.7,24.5,30.04,SE,141,2.0,4.0,84,0.00,,---,0.00,VWS V14.00,2013-02-07 00:30:00,
2013-02-06 18:35:00,28.8,24.6,30.03,SE,140,0.0,4.0,84,0.00,,---,0.00,VWS V14.00,2013-02-07 00:35:00,
2013-02-06 18:40:00,28.8,24.6,30.03,ESE,123,0.0,3.0,84,0.00,,---,0.00,VWS V14.00,2013-02-07 00:40:00,
2013-02-06 18:45:00,28.9,24.7,30.02,ESE,115,0.0,4.0,84,0.00,,---,0.00,VWS V14.00,2013-02-07 00:45:00,
2013-02-06 18:50:00,28.9,24.7,30.04,ESE,113,0.0,2.0,84,0.00,,---,0.00,VWS V14.00,2013-02-07 00:50:00,
2013-02-06 18:55:00,28.9,24.7,30.03,ESE,113,2.0,2.0,84,0.00,,---,0.00,VWS V14.00,2013-02-07 00:55:00,
2013-02-06 19:00:00,29.0,24.8,30.03,ESE,110,0.0,3.0,84,0.00,,---,0.00,VWS V14.00,2013-02-07 01:00:00,
2013-02-06 19:05:00,29.1,25.2,30.03,ESE,111,2.0,3.0,85,0.00,,---,0.00,VWS V14.00,2013-02-07 01:05:00,
2013-02-06 19:10:00,29.2,25.3,30.03,ESE,122,3.0,4.0,85,0.00,,---,0.00,VWS V14.00,2013-02-07 01:10:00,
2013-02-06 19:15:00,29.3,25.6,30.02,SE,129,2.0,5.0,86,0.00,,---,0.00,VWS V14.00,2013-02-07 01:15:00,
2013-02-06 19:20:00,29.3,25.9,30.01,SE,130,3.0,4.0,87,0.00,,---,0.00,VWS V14.00,2013-02-07 01:20:00,
2013-02-06 19:25:00,29.3,26.2,30.00,SE,127,0.0,6.0,88,0.00,,---,0.00,VWS V14.00,2013-02-07 01:25:00,
2013-02-06 19:30:00,29.5,26.7,30.00,SE,133,1.0,7.0,89,0.00,,---,0.00,VWS V14.00,2013-02-07 01:30:00,
2013-02-06 19:35:00,29.8,27.0,30.01,SSE,153,5.0,7.0,89,0.00,,---,0.00,VWS V14.00,2013-02-07 01:35:00,
2013-02-06 19:40:00,30.1,27.0,30.00,SSE,160,5.0,9.0,88,0.00,,---,0.00,VWS V14.00,2013-02-07 01:40:00,
2013-02-06 19:45:00,30.3,26.9,30.00,SE,142,6.0,9.0,87,0.00,,---,0.00,VWS V14.00,2013-02-07 01:45:00,
2013-02-06 19:50:00,30.4,27.0,30.00,SE,146,10.0,11.0,87,0.00,,---,0.00,VWS V14.00,2013-02-07 01:50:00,
2013-02-06 19:55:00,30.6,27.2,30.00,SSE,156,1.0,10.0,87,0.00,,---,0.00,VWS V14.00,2013-02-07 01:55:00,
2013-02-06 20:00:00,30.8,27.4,29.99,SSE,153,4.0,10.0,87,0.00,,---,0.00,VWS V14.00,2013-02-07 02:00:00,
2013-02-06 20:05:00,31.1,27.7,29.97,SE,129,6.0,11.0,87,0.00,,---,0.00,VWS V14.00,2013-02-07 02:05:00,
2013-02-06 20:10:00,31.3,27.6,29.97,ESE,118,3.0,10.0,86,0.00,,---,0.00,VWS V14.00,2013-02-07 02:10:00,
2013-02-06 20:15:00,31.5,27.8,29.97,ESE,115,4.0,11.0,86,0.00,,---,0.00,VWS V14.00,2013-02-07 02:15:00,
2013-02-06 20:20:00,31.8,28.1,29.97,SE,142,2.0,3.0,86,0.00,,---,0.00,VWS V14.00,2013-02-07 02:20:00,
2013-02-06 20:25:00,32.0,28.3,29.96,SE,138,5.0,11.0,86,0.00,,---,0.00,VWS V14.00,2013-02-07 02:25:00,
2013-02-06 20:30:00,32.1,28.1,29.97,South,169,4.0,11.0,85,0.00,,---,0.00,VWS V14.00,2013-02-07 02:30:00,
2013-02-06 20:35:00,32.3,28.6,29.96,SSE,163,4.0,9.0,86,0.00,,---,0.00,VWS V14.00,2013-02-07 02:35:00,
2013-02-06 20:40:00,32.4,28.4,29.97,SSE,148,9.0,11.0,85,0.00,,---,0.00,VWS V14.00,2013-02-07 02:40:00,
2013-02-06 20:45:00,32.5,28.5,29.97,South,178,4.0,9.0,85,0.00,,---,0.00,VWS V14.00,2013-02-07 02:45:00,
2013-02-06 20:50:00,32.6,28.6,29.97,SSE,147,4.0,10.0,85,0.00,,---,0.00,VWS V14.00,2013-02-07 02:50:00,
2013-02-06 20:55:00,32.8,29.1,29.97,SSE,148,3.0,14.0,86,0.00,,---,0.00,VWS V14.00,2013-02-07 02:55:00,
2013-02-06 21:00:00,33.1,29.1,29.96,SSE,161,5.0,13.0,85,0.00,,---,0.00,VWS V14.00,2013-02-07 03:00:00,
2013-02-06 21:05:00,33.0,29.0,29.96,South,174,2.0,12.0,85,0.00,,---,0.00,VWS V14.00,2013-02-07 03:05:00,
2013-02-06 21:10:00,32.9,29.2,29.96,SSE,150,5.0,10.0,86,0.00,,---,0.00,VWS V14.00,2013-02-07 03:10:00,
2013-02-06 21:15:00,32.8,29.1,29.96,SSE,149,11.0,12.0,86,0.00,,---,0.00,VWS V14.00,2013-02-07 03:15:00,
2013-02-06 21:20:00,32.8,29.1,29.95,SE,146,2.0,12.0,86,0.00,,---,0.00,VWS V14.00,2013-02-07 03:20:00,
2013-02-06 21:25:00,32.8,29.1,29.96,SE,144,3.0,10.0,86,0.00,,---,0.00,VWS V14.00,2013-02-07 03:25:00,
2013-02-06 21:30:00,32.8,29.1,29.96,South,174,4.0,10.0,86,0.00,,---,0.00,VWS V14.00,2013-02-07 03:30:00,
2013-02-06 21:35:00,32.9,29.2,29.96,SSE,162,5.0,7.0,86,0.00,,---,0.00,VWS V14.00,2013-02-07 03:35:00,
2013-02-06 21:40:00,33.0,29.3,29.96,South,184,0.0,6.0,86,0.00,,---,0.00,VWS V14.00,2013-02-07 03:40:00,
2013-02-06 21:45:00,33.0,29.6,29.97,SSW,203,0.0,6.0,87,0.00,,---,0.00,VWS V14.00,2013-02-07 03:45:00,
2013-02-06 21:50:00,33.0,29.6,29.98,WSW,251,0.0,3.0,87,0.00,,---,0.00,VWS V14.00,2013-02-07 03:50:00,
2013-02-06 21:55:00,33.0,29.6,29.99,NW,306,0.0,4.0,87,0.00,,---,0.00,VWS V14.00,2013-02-07 03:55:00,
2013-02-06 22:00:00,33.1,29.7,29.99,South,178,3.0,3.0,87,0.00,,---,0.00,VWS V14.00,2013-02-07 04:00:00,
2013-02-06 22:05:00,33.0,29.6,29.98,SE,128,0.0,5.0,87,0.00,,---,0.00,VWS V14.00,2013-02-07 04:05:00,
2013-02-06 22:10:00,33.0,29.6,29.98,SSE,167,2.0,3.0,87,0.00,,---,0.00,VWS V14.00,2013-02-07 04:10:00,
2013-02-06 22:15:00,33.0,29.6,29.98,SE,146,1.0,2.0,87,0.00,,---,0.00,VWS V14.00,2013-02-07 04:15:00,
2013-02-06 22:20:00,33.0,29.6,29.98,SE,146,0.0,0.0,87,0.00,,---,0.00,VWS V14.00,2013-02-07 04:20:00,
2013-02-06 22:25:00,33.1,29.9,29.97,SSE,157,1.0,2.0,88,0.00,,---,0.00,VWS V14.00,2013-02-07 04:25:00,
2013-02-06 22:30:00,33.1,29.9,29.97,SE,135,3.0,3.0,88,0.00,,---,0.00,VWS V14.00,2013-02-07 04:30:00,
2013-02-06 22:35:00,33.2,30.0,29.97,SE,130,2.0,2.0,88,0.00,,---,0.00,VWS V14.00,2013-02-07 04:35:00,
2013-02-06 22:40:00,33.2,30.0,29.97,SE,130,3.0,3.0,88,0.00,,---,0.00,VWS V14.00,2013-02-07 04:40:00,
2013-02-06 22:45:00,33.2,30.0,29.97,ESE,103,3.0,3.0,88,0.00,,---,0.00,VWS V14.00,2013-02-07 04:45:00,
2013-02-06 22:50:00,33.3,30.1,29.97,ESE,103,1.0,3.0,88,0.00,,---,0.00,VWS V14.00,2013-02-07 04:50:00,
2013-02-06 22:55:00,33.3,30.1,29.97,ESE,103,0.0,0.0,88,0.00,,---,0.00,VWS V14.00,2013-02-07 04:55:00,
2013-02-06 23:00:00,33.3,30.1,29.97,ESE,103,0.0,2.0,88,0.00,,---,0.00,VWS V14.00,2013-02-07 05:00:00,
2013-02-06 23:05:00,33.3,30.1,29.98,ESE,103,0.0,0.0,88,0.00,,---,0.00,VWS V14.00,2013-02-07 05:05:00,
2013-02-06 23:10:00,33.3,30.1,29.97,ESE,103,0.0,0.0,88,0.00,,---,0.00,VWS V14.00,2013-02-07 05:10:00,
2013-02-06 23:15:00,33.2,30.0,29.97,ESE,103,1.0,2.0,88,0.00,,---,0.00,VWS V14.00,2013-02-07 05:15:00,
2013-02-06 23:20:00,33.3,30.1,29.97,SE,144,1.0,3.0,88,0.00,,---,0.00,VWS V14.00,2013-02-07 05:20:00,
2013-02-06 23:25:00,33.3,30.1,29.97,SE,144,0.0,1.0,88,0.00,,---,0.00,VWS V14.00,2013-02-07 05:25:00,
2013-02-06 23:30:00,33.3,30.1,29.97,SE,144,2.0,2.0,88,0.00,,---,0.00,VWS V14.00,2013-02-07 05:30:00,
2013-02-06 23:35:00,33.3,30.1,29.97,SE,144,0.0,0.0,88,0.00,,---,0.00,VWS V14.00,2013-02-07 05:35:00,
2013-02-06 23:40:00,33.3,30.1,29.98,SE,144,0.0,2.0,88,0.00,,---,0.00,VWS V14.00,2013-02-07 05:40:00,
2013-02-06 23:45:00,33.3,30.1,29.98,SE,144,0.0,0.0,88,0.00,,---,0.00,VWS V14.00,2013-02-07 05:45:00,
2013-02-06 23:50:00,33.4,30.2,29.98,SE,144,0.0,0.0,88,0.00,,---,0.00,VWS V14.00,2013-02-07 05:50:00,
2013-02-06 23:55:00,33.3,30.4,29.98,SE,144,0.0,0.0,89,0.00,,---,0.00,VWS V14.00,2013-02-07 05:55:00,